• Join FlightAware (Why Join?)
  • Login
  • US Flag 
12:54PM EDT


 

Airport Tracker/Info


-or-


 

Live Flight TrackerFlight Track Log ✈ SWA268 ✈ 07-Apr-2013 ✈ KLAS - KABQ

Flight Track Log - Related Links

Times and Time Zones

All times are in EDT time to prevent confusion due to time zone crossing. See the SWA268 flight status page for this flight to view local times or setup timezone preferences in your user account.

Time Position Orientation Groundspeed Altitude Reporting Facility
EDT Latitude Longitude Course Direction KTS MPH feet Rate Location/Type
01:59PM 36.0694 -115.2475 263° West 223 257 5,100  Level Los Angeles Center
02:00PM 36.0331 -115.2708 207° Southwest 238 274 6,100 2,100 Climbing Los Angeles Center
02:00PM 35.9947 -115.2906 203° Southwest 273 314 7,500 3,480 Climbing Los Angeles Center
02:01PM 35.9492 -115.2906 180° South 283 326 9,800 3,120 Climbing Los Angeles Center
02:02PM 35.8678 -115.2489 157° South 308 354 12,600 2,640 Climbing Los Angeles Center
02:03PM 35.8356 -115.1328 109° East 357 411 15,300 2,820 Climbing Los Angeles Center
02:04PM 35.8264 -115.0061 95° East 378 435 18,500 2,580 Climbing Los Angeles Center
02:05PM 35.8383 -114.8689 84° East 401 461 20,700 2,340 Climbing Los Angeles Center
02:06PM 35.8517 -114.7253 83° East 420 483 23,400 2,460 Climbing Los Angeles Center
02:07PM 35.8672 -114.5475 84° East 435 501 25,900 1,980 Climbing Los Angeles Center
02:08PM 35.8814 -114.3894 84° East 470 541 27,500 1,500 Climbing Los Angeles Center
02:09PM 35.8950 -114.2264 84° East 485 558 29,100 1,440 Climbing Los Angeles Center
02:10PM 35.9092 -114.0575 84° East 494 568 30,600 1,440 Climbing Los Angeles Center
02:11PM 35.9197 -113.8822 86° East 510 587 32,200 1,740 Climbing Los Angeles Center
02:12PM 35.8881 -113.6744 101° East 516 594 34,200 1,560 Climbing Los Angeles Center
02:13PM 35.8658 -113.5322 101° East 515 593 35,500 1,320 Climbing Los Angeles Center
02:14PM 35.8325 -113.3278 101° East 510 587 37,000 720 Climbing Los Angeles Center
02:15PM 35.8047 -113.1567 101° East 509 586 37,000  Level Los Angeles Center
02:16PM 35.7769 -112.9850 101° East 510 587 37,000  Level Los Angeles Center
02:17PM 35.7481 -112.8094 101° East 507 583 37,000  Level Los Angeles Center
02:18PM 35.7203 -112.6444 102° East 506 582 37,000  Level Los Angeles Center
02:19PM 35.6922 -112.4739 101° East 507 583 37,000  Level Los Angeles Center
02:20PM 35.6575 -112.2719 102° East 505 581 37,000  Level Los Angeles Center
02:21PM 35.6281 -112.1053 102° East 502 578 37,000  Level Los Angeles Center
02:22PM 35.6214 -112.0697 103° East 505 581 37,000  Level Albuquerque Center
02:23PM 35.5933 -111.9028 102° East 502 578 37,000  Level Albuquerque Center
02:24PM 35.5867 -111.6992 92° East 501 577 37,000  Level Albuquerque Center
02:25PM 35.5817 -111.5286 92° East 500 575 37,000  Level Albuquerque Center
02:26PM 35.5761 -111.3508 92° East 506 582 37,000  Level Albuquerque Center
02:27PM 35.5700 -111.1586 92° East 506 582 37,000  Level Albuquerque Center
02:28PM 35.5647 -110.9942 92° East 505 581 37,000  Level Albuquerque Center
02:29PM 35.5586 -110.8275 93° East 507 583 37,000  Level Albuquerque Center
02:30PM 35.5506 -110.6331 93° East 511 588 37,000  Level Albuquerque Center
02:31PM 35.5456 -110.4689 92° East 506 582 37,000  Level Albuquerque Center
02:32PM 35.5392 -110.2761 92° East 506 582 37,000  Level Albuquerque Center
02:33PM 35.5319 -110.1108 93° East 507 583 37,000  Level Albuquerque Center
02:34PM 35.5244 -109.9189 93° East 506 582 37,000  Level Albuquerque Center
02:35PM 35.5178 -109.7550 93° East 505 581 37,000 -420 Level Albuquerque Center
02:36PM 35.5092 -109.5622 93° East 506 582 36,200 -900 Descending Albuquerque Center
02:37PM 35.5014 -109.3950 93° East 511 588 35,200 -1,020 Descending Albuquerque Center
02:38PM 35.4928 -109.1994 93° East 515 593 34,200 -960 Descending Albuquerque Center
02:39PM 35.4844 -109.0322 93° East 516 594 33,300 -1,020 Descending Albuquerque Center
02:40PM 35.4772 -108.8392 93° East 512 589 32,200 -1,020 Descending Albuquerque Center
02:41PM 35.4825 -108.6761 88° East 506 582 31,200 -1,020 Descending Albuquerque Center
02:42PM 35.4864 -108.4872 88° East 500 575 30,100 -1,020 Descending Albuquerque Center
02:43PM 35.4883 -108.3297 89° East 491 565 29,100 -1,140 Descending Albuquerque Center
02:44PM 35.4761 -108.1508 95° East 478 550 27,800 -1,560 Descending Albuquerque Center
02:45PM 35.4664 -108.0011 95° East 467 537 25,900 -2,040 Descending Albuquerque Center
02:47PM 35.4547 -107.8333 95° East 450 518 23,700 -1,980 Descending Albuquerque Center
02:48PM 35.4450 -107.6939 95° East 436 502 21,900 -1,920 Descending Albuquerque Center
02:49PM 35.4342 -107.5381 95° East 417 480 19,800 -1,920 Descending Albuquerque Center
02:50PM 35.4267 -107.4086 94° East 404 465 18,000 -1,860 Descending Albuquerque Center
02:50PM 35.4192 -107.3669 102° East 391 450 17,400 -2,100 Descending Albuquerque Center
02:50PM 35.4028 -107.3192 113° Southeast 392 451 16,600 -1,620 Descending Albuquerque Center
02:51PM 35.3781 -107.2761 125° Southeast 391 450 16,200 -1,200 Descending Albuquerque Center
02:51PM 35.3408 -107.2044 122° Southeast 366 421 15,400 -1,080 Descending Albuquerque Center
02:52PM 35.3311 -107.1847 121° Southeast 373 429 15,100 -1,620 Descending Albuquerque Center
02:52PM 35.2894 -107.1031 122° Southeast 351 404 13,800 -1,560 Descending Albuquerque Center
02:53PM 35.2828 -107.0806 110° East 356 410 13,500 -1,500 Descending Albuquerque Center
02:53PM 35.2581 -106.9942 109° East 341 392 12,300 -1,560 Descending Albuquerque Center
02:54PM 35.2544 -106.9708 101° East 339 390 11,900 -1,500 Descending Albuquerque Center
02:54PM 35.2317 -106.8892 109° East 326 375 10,800 -1,680 Descending Albuquerque Center
02:55PM 35.2197 -106.8436 108° East 329 379 10,200 -900 Descending Albuquerque Center
02:55PM 35.2033 -106.7872 110° East 316 364 9,900 -720 Descending Albuquerque Center
02:56PM 35.1922 -106.7408 106° East 316 364 9,500 -900 Descending Albuquerque Center
02:56PM 35.1764 -106.6931 112° Southeast 287 330 9,000 -540 Descending Albuquerque Center
02:57PM 35.1653 -106.6506 108° East 296 341 9,000  Level Albuquerque Center
02:57PM 35.1472 -106.5992 113° Southeast 240 276 9,000 -420 Level Albuquerque Center
02:58PM 35.1408 -106.5747 108° East 260 299 8,600 -1,140 Descending Albuquerque Center
02:58PM 35.1278 -106.5367 113° Southeast 214 246 8,000 -1,200 Descending Albuquerque Center
02:59PM 35.1097 -106.5147 135° Southeast 236 272 7,400 -1,140 Descending Albuquerque Center
02:59PM 35.0803 -106.5206 189° South 182 209 6,900 -900 Descending Albuquerque Center
03:00PM 35.0594 -106.5200 179° South 198 228 6,500 -900 Descending Albuquerque Center
03:00PM 35.0436 -106.5431 230° Southwest 142 163 6,000 -780 Descending Albuquerque Center
03:01PM 35.0436 -106.5594 270° West 167 192 5,700 -480 Descending Albuquerque Center
03:02PM 35.0461 -106.6136 273° West 155 178 5,300 -420 Descending Albuquerque Center